createdAt,value
2017-12-03T00:01:33.433Z,59.40
2017-12-03T00:04:01.057Z,58.70
2017-12-03T00:06:28.674Z,57.10
2017-12-03T00:08:56.356Z,57.20
2017-12-03T00:11:23.987Z,57.40
2017-12-03T00:13:51.611Z,57.10
2017-12-03T00:16:19.509Z,57.40
2017-12-03T00:18:47.144Z,57.30
2017-12-03T00:21:14.762Z,56.10
2017-12-03T00:23:43.219Z,56.60
2017-12-03T00:26:10.849Z,56.70
2017-12-03T00:28:38.467Z,57.50
2017-12-03T00:31:06.396Z,56.00
2017-12-03T00:36:12.770Z,55.90
2017-12-03T00:38:40.919Z,55.10
2017-12-03T00:41:08.531Z,55.50
2017-12-03T00:43:36.208Z,54.40
2017-12-03T00:46:03.822Z,54.90
2017-12-03T00:48:31.452Z,54.20
2017-12-03T00:50:59.130Z,54.80
2017-12-03T00:53:26.759Z,55.60
2017-12-03T00:55:54.386Z,56.10
2017-12-03T00:58:22.064Z,56.20
2017-12-03T01:00:49.694Z,55.40
2017-12-03T01:03:19.435Z,54.50
2017-12-03T01:05:47.124Z,55.60
2017-12-03T01:08:14.743Z,55.80
2017-12-03T01:10:42.366Z,56.20
2017-12-03T01:13:10.056Z,55.60
2017-12-03T01:15:37.685Z,55.80
2017-12-03T01:18:05.319Z,55.30
2017-12-03T01:20:33.267Z,56.00
2017-12-03T01:23:00.900Z,56.00
2017-12-03T01:25:28.525Z,56.20
2017-12-03T01:27:56.216Z,56.40
2017-12-03T01:30:23.840Z,56.70
2017-12-03T01:32:53.073Z,57.20
2017-12-03T01:35:20.828Z,57.90
2017-12-03T01:37:48.460Z,58.70
2017-12-03T01:40:16.084Z,58.90
2017-12-03T01:42:43.762Z,58.90
2017-12-03T01:47:38.997Z,58.00
2017-12-03T01:50:08.014Z,57.90
2017-12-03T01:52:35.631Z,57.70
2017-12-03T01:55:03.251Z,57.80
2017-12-03T01:57:30.925Z,58.60
2017-12-03T02:02:41.330Z,58.60
2017-12-03T02:05:08.941Z,58.70
2017-12-03T02:07:36.558Z,59.00
2017-12-03T02:10:04.244Z,59.80
2017-12-03T02:15:12.402Z,58.70
2017-12-03T02:17:40.032Z,59.10
2017-12-03T02:20:07.664Z,58.00
2017-12-03T02:22:36.144Z,58.30
2017-12-03T02:25:03.766Z,57.60
2017-12-03T02:27:31.391Z,57.60
2017-12-03T02:29:59.251Z,56.90
2017-12-03T02:32:26.872Z,57.40
2017-12-03T02:34:54.505Z,57.30
2017-12-03T02:37:22.169Z,58.10
2017-12-03T02:39:49.795Z,58.00
2017-12-03T02:42:17.419Z,57.00
2017-12-03T02:47:13.066Z,57.90
2017-12-03T02:49:40.679Z,56.90
2017-12-03T02:52:08.359Z,56.80
2017-12-03T02:54:35.979Z,57.70
2017-12-03T02:57:03.600Z,56.80
2017-12-03T02:59:31.484Z,57.30
2017-12-03T03:01:59.106Z,57.80
2017-12-03T03:04:26.720Z,57.90
2017-12-03T03:06:54.416Z,57.40
2017-12-03T03:11:49.660Z,57.10
2017-12-03T03:14:17.342Z,57.00
2017-12-03T03:16:44.963Z,57.30
2017-12-03T03:19:12.585Z,57.00
2017-12-03T03:21:40.263Z,56.70
2017-12-03T03:24:07.888Z,56.70
2017-12-03T03:26:35.512Z,56.80
2017-12-03T03:29:03.410Z,57.20
2017-12-03T03:31:31.033Z,57.30
2017-12-03T03:33:58.661Z,58.10
2017-12-03T03:39:07.425Z,58.40
2017-12-03T03:41:35.447Z,57.50
2017-12-03T03:44:03.075Z,57.20
2017-12-03T03:46:31.420Z,57.00
2017-12-03T03:48:59.096Z,57.40
2017-12-03T03:51:26.716Z,58.50
2017-12-03T03:53:54.337Z,57.80
2017-12-03T03:56:22.021Z,58.10
2017-12-03T03:58:49.639Z,58.10
2017-12-03T04:01:17.260Z,58.90
2017-12-03T04:03:44.939Z,58.50
2017-12-03T04:06:12.559Z,59.00
2017-12-03T04:08:40.185Z,58.30
2017-12-03T04:11:08.281Z,58.60
2017-12-03T04:13:35.907Z,58.30
2017-12-03T04:16:04.390Z,58.30
2017-12-03T04:20:59.687Z,58.10
2017-12-03T04:23:27.300Z,59.50
2017-12-03T04:25:54.981Z,58.80
2017-12-03T04:28:23.522Z,58.50
2017-12-03T04:30:51.147Z,59.80
2017-12-03T04:33:19.071Z,58.50
2017-12-03T04:35:46.692Z,57.10
2017-12-03T04:38:14.307Z,56.20
2017-12-03T04:40:41.976Z,56.80
2017-12-03T04:43:09.599Z,57.70
2017-12-03T04:45:37.223Z,57.30
2017-12-03T04:50:33.497Z,59.70
2017-12-03T04:53:01.121Z,59.60
2017-12-03T04:55:28.797Z,59.70
2017-12-03T04:57:56.424Z,58.00
2017-12-03T05:00:24.049Z,56.00
2017-12-03T05:05:31.955Z,56.90
2017-12-03T05:07:59.623Z,56.70
2017-12-03T05:10:28.914Z,58.00
2017-12-03T05:12:55.169Z,56.70
2017-12-03T05:15:22.853Z,57.20
2017-12-03T05:17:50.468Z,55.20
2017-12-03T05:20:18.091Z,55.70
2017-12-03T05:22:46.002Z,55.60
2017-12-03T05:25:13.622Z,55.40
2017-12-03T05:27:41.239Z,55.60
2017-12-03T05:30:08.964Z,55.20
2017-12-03T05:32:36.585Z,55.10
2017-12-03T05:35:04.202Z,55.40
2017-12-03T05:37:32.140Z,54.70
2017-12-03T05:39:59.760Z,54.30
2017-12-03T05:42:27.380Z,54.70
2017-12-03T05:44:55.049Z,56.30
2017-12-03T05:47:22.690Z,55.00
2017-12-03T05:52:18.235Z,55.50
2017-12-03T05:54:45.858Z,55.00
2017-12-03T05:57:13.481Z,56.20
2017-12-03T05:59:41.165Z,55.50
2017-12-03T06:02:08.779Z,56.20
2017-12-03T06:04:36.407Z,56.90
2017-12-03T06:07:04.230Z,57.10
2017-12-03T06:09:31.853Z,57.40
2017-12-03T06:11:59.490Z,57.70
2017-12-03T06:14:27.168Z,55.90
2017-12-03T06:19:34.378Z,57.30
2017-12-03T06:22:02.001Z,58.00
2017-12-03T06:24:29.619Z,59.10
2017-12-03T06:26:57.296Z,55.90
2017-12-03T06:29:24.925Z,56.40
2017-12-03T06:31:52.543Z,58.20
2017-12-03T06:36:47.981Z,56.60
2017-12-03T06:39:15.600Z,55.40
2017-12-03T06:41:43.268Z,55.50
2017-12-03T06:44:10.903Z,56.40
2017-12-03T06:46:42.290Z,56.50
2017-12-03T06:49:09.973Z,56.60
2017-12-03T06:54:21.499Z,58.40
2017-12-03T06:56:49.133Z,58.50
2017-12-03T06:59:16.743Z,58.50
2017-12-03T07:01:44.424Z,58.70
2017-12-03T07:04:12.046Z,58.70
2017-12-03T07:06:39.667Z,57.80
2017-12-03T07:09:07.354Z,57.60
2017-12-03T07:11:34.972Z,58.10
2017-12-03T07:14:02.595Z,58.80
2017-12-03T07:16:30.276Z,58.90
2017-12-03T07:18:57.900Z,60.10
2017-12-03T07:21:25.523Z,60.30
2017-12-03T07:23:54.067Z,60.70
2017-12-03T07:26:21.687Z,59.70
2017-12-03T07:28:49.326Z,58.80
2017-12-03T07:31:17.325Z,58.70
2017-12-03T07:33:44.936Z,58.30
2017-12-03T07:36:12.563Z,58.80
2017-12-03T07:38:40.395Z,59.30
2017-12-03T07:41:08.020Z,58.90
2017-12-03T07:46:03.595Z,60.20
2017-12-03T07:48:31.224Z,59.70
2017-12-03T07:50:58.845Z,59.90
2017-12-03T07:53:26.926Z,58.10
2017-12-03T07:55:54.481Z,58.50
2017-12-03T07:58:22.095Z,58.70
2017-12-03T08:03:28.862Z,58.20
2017-12-03T08:05:57.368Z,59.10
2017-12-03T08:08:24.989Z,59.10
2017-12-03T08:10:52.643Z,59.10
2017-12-03T08:13:21.104Z,64.20
2017-12-03T08:15:49.518Z,58.00
2017-12-03T08:18:17.134Z,57.50
2017-12-03T08:20:45.072Z,58.60
2017-12-03T08:23:12.731Z,59.10
2017-12-03T08:25:40.345Z,59.80
2017-12-03T08:28:08.013Z,59.40
2017-12-03T08:30:35.631Z,59.50
2017-12-03T08:33:04.200Z,59.40
2017-12-03T08:35:32.025Z,59.20
2017-12-03T08:40:28.246Z,58.40
2017-12-03T08:42:55.863Z,58.10
2017-12-03T08:45:23.579Z,58.60
2017-12-03T08:47:51.194Z,58.80
2017-12-03T08:50:18.872Z,58.90
2017-12-03T08:52:47.337Z,58.80
2017-12-03T08:55:21.829Z,58.90
2017-12-03T08:57:49.460Z,58.00
2017-12-03T09:00:17.078Z,57.60
2017-12-03T09:02:44.755Z,59.00
2017-12-03T09:05:12.378Z,59.20
2017-12-03T09:07:40.012Z,59.60
2017-12-03T09:12:35.300Z,58.70
2017-12-03T09:15:02.925Z,57.00
2017-12-03T09:17:31.552Z,56.90
2017-12-03T09:19:59.176Z,57.60
2017-12-03T09:25:05.944Z,58.20
2017-12-03T09:27:33.562Z,58.50
2017-12-03T09:30:01.185Z,58.00
2017-12-03T09:32:28.865Z,57.10
2017-12-03T09:34:56.491Z,57.00
2017-12-03T09:37:24.114Z,58.30
2017-12-03T09:39:51.936Z,58.40
2017-12-03T09:42:19.567Z,58.20
2017-12-03T09:44:48.008Z,58.30
2017-12-03T09:47:16.466Z,56.90
2017-12-03T09:49:44.100Z,54.70
2017-12-03T09:52:11.717Z,56.00
2017-12-03T09:57:07.079Z,54.70
2017-12-03T09:59:36.448Z,54.50
2017-12-03T10:02:04.226Z,69.00
2017-12-03T10:04:31.842Z,54.10
2017-12-03T10:06:59.464Z,51.30
2017-12-03T10:09:27.133Z,51.60
2017-12-03T10:11:54.780Z,53.40
2017-12-03T10:14:22.408Z,51.60
2017-12-03T10:16:50.316Z,52.00
2017-12-03T10:19:21.063Z,51.50
2017-12-03T10:21:48.688Z,62.80
2017-12-03T10:24:16.360Z,54.20
2017-12-03T10:26:44.704Z,52.50
2017-12-03T10:31:39.997Z,49.70
2017-12-03T10:34:07.624Z,51.10
2017-12-03T10:39:15.534Z,49.70
2017-12-03T10:41:43.151Z,52.30
2017-12-03T10:44:10.768Z,51.60
2017-12-03T10:46:38.448Z,50.20
2017-12-03T10:49:06.077Z,49.50
2017-12-03T10:51:33.709Z,49.30
2017-12-03T10:54:01.389Z,47.20
2017-12-03T10:56:29.327Z,46.90
2017-12-03T10:58:56.961Z,47.80
2017-12-03T11:01:24.632Z,49.30
2017-12-03T11:03:53.110Z,49.50
2017-12-03T11:06:20.731Z,49.00
2017-12-03T11:08:48.696Z,50.00
2017-12-03T11:11:16.318Z,48.30
2017-12-03T11:13:43.928Z,48.50
2017-12-03T11:16:12.416Z,47.90
2017-12-03T11:18:40.877Z,48.50
2017-12-03T11:21:08.494Z,46.50
2017-12-03T11:23:37.114Z,46.80
2017-12-03T11:26:04.816Z,47.50
2017-12-03T11:28:33.291Z,47.80
2017-12-03T11:31:00.972Z,47.50
2017-12-03T11:35:56.937Z,47.10
2017-12-03T11:38:25.551Z,47.50
2017-12-03T11:40:53.172Z,45.40
2017-12-03T11:43:20.788Z,47.50
2017-12-03T11:45:48.633Z,44.90
2017-12-03T11:48:17.095Z,44.90
2017-12-03T11:50:45.556Z,43.70
2017-12-03T11:53:13.237Z,42.80
2017-12-03T11:55:40.851Z,43.60
2017-12-03T11:58:09.410Z,43.20
2017-12-03T12:03:17.260Z,44.80
2017-12-03T12:08:12.572Z,41.50
2017-12-03T12:10:40.194Z,43.00
2017-12-03T12:13:08.416Z,42.00
2017-12-03T12:15:36.034Z,41.10
2017-12-03T12:18:03.644Z,41.10
2017-12-03T12:20:32.271Z,41.00
2017-12-03T12:22:59.891Z,40.80
2017-12-03T12:25:32.635Z,39.30
2017-12-03T12:28:05.867Z,41.50
2017-12-03T12:30:30.771Z,40.60
2017-12-03T12:32:58.466Z,39.10
2017-12-03T12:35:26.112Z,39.20
2017-12-03T12:37:53.741Z,37.70
2017-12-03T12:40:21.722Z,37.10
2017-12-03T12:42:49.346Z,37.90
2017-12-03T12:45:16.962Z,37.10
2017-12-03T12:47:44.634Z,40.50
2017-12-03T12:50:13.015Z,40.50
2017-12-03T12:52:40.638Z,38.20
2017-12-03T12:55:08.315Z,37.60
2017-12-03T12:57:36.889Z,38.50
2017-12-03T13:00:06.191Z,37.40
2017-12-03T13:02:34.051Z,37.70
2017-12-03T13:05:01.683Z,38.90
2017-12-03T13:07:32.539Z,39.70
2017-12-03T13:10:00.071Z,36.90
2017-12-03T13:15:06.947Z,36.90
2017-12-03T13:20:02.182Z,38.10
2017-12-03T13:22:30.945Z,39.50
2017-12-03T13:24:58.563Z,39.80
2017-12-03T13:27:27.007Z,41.30
2017-12-03T13:29:54.678Z,40.50
2017-12-03T13:32:22.302Z,41.30
2017-12-03T13:34:50.876Z,42.00
2017-12-03T13:37:18.697Z,40.90
2017-12-03T13:39:47.273Z,41.00
2017-12-03T13:42:15.837Z,40.20
2017-12-03T13:44:43.687Z,39.50
2017-12-03T13:47:11.303Z,41.00
2017-12-03T13:49:40.764Z,40.60
2017-12-03T13:52:08.421Z,42.40
2017-12-03T13:54:36.070Z,43.50
2017-12-03T13:59:31.687Z,42.10
2017-12-03T14:01:59.280Z,41.40
2017-12-03T14:04:26.940Z,41.40
2017-12-03T14:06:55.846Z,41.30
2017-12-03T14:09:23.483Z,41.20
2017-12-03T14:11:51.102Z,41.70
2017-12-03T14:14:20.055Z,41.10
2017-12-03T14:16:48.564Z,41.10
2017-12-03T14:19:16.183Z,39.90
2017-12-03T14:21:43.868Z,41.40
2017-12-03T14:26:53.695Z,42.90
2017-12-03T14:29:21.308Z,44.60
2017-12-03T14:31:48.935Z,45.10
2017-12-03T14:34:16.625Z,45.60
2017-12-03T14:36:44.237Z,45.50
2017-12-03T14:39:11.854Z,45.70
2017-12-03T14:41:39.888Z,45.00
2017-12-03T14:44:09.697Z,44.20
2017-12-03T14:46:35.810Z,45.30
2017-12-03T14:49:03.482Z,45.80
2017-12-03T14:51:32.029Z,45.80
2017-12-03T14:54:00.570Z,45.30
2017-12-03T14:56:28.628Z,48.00
2017-12-03T14:58:57.067Z,47.50
2017-12-03T15:01:24.683Z,47.50
2017-12-03T15:03:52.367Z,46.40
2017-12-03T15:06:20.000Z,46.90
2017-12-03T15:08:47.604Z,46.90
2017-12-03T15:11:15.507Z,47.10
2017-12-03T15:13:43.137Z,47.20
2017-12-03T15:16:10.761Z,47.90
2017-12-03T15:18:38.443Z,48.50
2017-12-03T15:26:14.721Z,54.10
2017-12-03T15:28:43.295Z,53.50
2017-12-03T15:31:10.912Z,54.70
2017-12-03T15:36:17.849Z,54.90
2017-12-03T15:38:45.525Z,55.40
2017-12-03T15:41:13.150Z,53.80
2017-12-03T15:43:40.783Z,52.70
2017-12-03T15:46:08.701Z,52.30
2017-12-03T15:48:36.230Z,52.70
2017-12-03T15:51:03.847Z,52.60
2017-12-03T15:53:31.754Z,51.80
2017-12-03T15:55:59.360Z,51.60
2017-12-03T15:58:26.983Z,52.10
2017-12-03T16:00:55.772Z,51.90
2017-12-03T16:03:23.388Z,52.10
2017-12-03T16:05:51.012Z,52.70
2017-12-03T16:08:18.834Z,52.40
2017-12-03T16:10:46.475Z,52.40
2017-12-03T16:13:14.193Z,53.20
2017-12-03T16:18:09.435Z,52.20
2017-12-03T16:20:37.065Z,52.50
2017-12-03T16:23:04.895Z,51.60
2017-12-03T16:25:32.513Z,51.90
2017-12-03T16:28:00.147Z,52.40
2017-12-03T16:30:27.977Z,53.20
2017-12-03T16:32:55.603Z,54.30
2017-12-03T16:37:51.763Z,55.10
2017-12-03T16:40:20.113Z,54.90
2017-12-03T16:45:16.307Z,54.50
2017-12-03T16:47:44.261Z,55.60
2017-12-03T16:50:12.635Z,55.30
2017-12-03T16:52:41.431Z,55.80
2017-12-03T16:55:09.061Z,54.50
2017-12-03T16:57:36.693Z,54.30
2017-12-03T17:00:04.747Z,54.90
2017-12-03T17:05:11.510Z,53.70
2017-12-03T17:07:39.958Z,53.50
2017-12-03T17:10:07.586Z,58.90
2017-12-03T17:12:36.380Z,53.60
2017-12-03T17:15:03.983Z,53.90
2017-12-03T17:17:31.616Z,54.10
2017-12-03T17:22:27.759Z,54.50
2017-12-03T17:27:23.322Z,55.30
2017-12-03T17:29:50.948Z,55.20
2017-12-03T17:32:19.517Z,55.40
2017-12-03T17:34:47.206Z,56.60
2017-12-03T17:37:14.840Z,56.70
2017-12-03T17:39:42.468Z,56.20
2017-12-03T17:42:10.295Z,56.70
2017-12-03T17:44:37.926Z,56.10
2017-12-03T17:49:33.496Z,55.60
2017-12-03T17:52:01.119Z,55.20
2017-12-03T17:54:32.704Z,54.50
2017-12-03T17:57:00.395Z,55.00
2017-12-03T17:59:28.738Z,55.40
2017-12-03T18:01:56.434Z,56.10
2017-12-03T18:04:25.133Z,54.70
2017-12-03T18:06:52.760Z,54.40
2017-12-03T18:09:21.117Z,54.80
2017-12-03T18:11:48.799Z,55.20
2017-12-03T18:14:16.427Z,55.20
2017-12-03T18:16:44.047Z,55.40
2017-12-03T18:19:11.724Z,55.20
2017-12-03T18:21:40.219Z,55.60
2017-12-03T18:24:07.849Z,56.40
2017-12-03T18:26:38.956Z,56.30
2017-12-03T18:31:46.700Z,54.30
2017-12-03T18:34:14.314Z,54.70
2017-12-03T18:36:41.939Z,53.50
2017-12-03T18:39:10.568Z,53.20
2017-12-03T18:41:38.201Z,53.10
2017-12-03T18:44:05.832Z,53.70
2017-12-03T18:46:33.521Z,53.80
2017-12-03T18:49:01.163Z,54.20
2017-12-03T18:51:28.788Z,55.20
2017-12-03T18:56:39.272Z,53.90
2017-12-03T18:59:06.975Z,54.10
2017-12-03T19:01:34.576Z,56.20
2017-12-03T19:04:02.205Z,54.90
2017-12-03T19:06:30.075Z,54.00
2017-12-03T19:08:57.711Z,53.40
2017-12-03T19:11:25.335Z,52.70
2017-12-03T19:13:53.185Z,51.10
2017-12-03T19:16:21.034Z,52.30
2017-12-03T19:18:48.904Z,52.90
2017-12-03T19:21:16.905Z,52.50
2017-12-03T19:29:04.803Z,52.20
2017-12-03T19:31:32.781Z,53.20
2017-12-03T19:34:00.401Z,51.70
2017-12-03T19:36:28.021Z,51.80
2017-12-03T19:38:55.718Z,52.60
2017-12-03T19:41:23.362Z,52.20
2017-12-03T19:43:51.030Z,52.90
2017-12-03T19:46:18.721Z,53.10
2017-12-03T19:48:46.453Z,52.60
2017-12-03T19:51:14.131Z,53.50
2017-12-03T19:53:42.292Z,55.10
2017-12-03T19:56:10.020Z,54.00
2017-12-03T19:58:37.595Z,53.60
2017-12-03T20:01:05.316Z,52.80
2017-12-03T20:03:32.941Z,53.70
2017-12-03T20:06:00.582Z,54.50
2017-12-03T20:08:28.472Z,55.40
2017-12-03T20:10:56.114Z,55.80
2017-12-03T20:13:23.841Z,56.40
2017-12-03T20:15:51.472Z,60.30
2017-12-03T20:18:19.218Z,57.70
2017-12-03T20:20:46.891Z,57.40
2017-12-03T20:25:54.383Z,56.90
2017-12-03T20:28:22.550Z,57.10
2017-12-03T20:30:50.168Z,57.10
2017-12-03T20:33:17.809Z,56.40
2017-12-03T20:35:45.773Z,56.80
2017-12-03T20:38:13.440Z,56.70
2017-12-03T20:40:41.141Z,56.60
2017-12-03T20:43:08.929Z,55.90
2017-12-03T20:45:36.632Z,56.20
2017-12-03T20:48:04.330Z,56.50
2017-12-03T20:50:32.387Z,55.70
2017-12-03T20:53:00.045Z,55.40
2017-12-03T20:55:27.810Z,56.00
2017-12-03T20:57:56.360Z,55.20
2017-12-03T21:00:23.998Z,55.60
2017-12-03T21:02:52.004Z,55.70
2017-12-03T21:05:19.895Z,56.40
2017-12-03T21:07:48.707Z,55.20
2017-12-03T21:10:16.186Z,56.20
2017-12-03T21:12:44.052Z,55.80
2017-12-03T21:17:39.325Z,56.00
2017-12-03T21:20:07.015Z,57.00
2017-12-03T21:22:34.650Z,56.40
2017-12-03T21:25:02.440Z,55.70
2017-12-03T21:27:30.630Z,57.00
2017-12-03T21:29:58.225Z,57.40
2017-12-03T21:32:25.925Z,57.20
2017-12-03T21:34:53.756Z,57.70
2017-12-03T21:37:21.382Z,57.20
2017-12-03T21:39:49.007Z,58.70
2017-12-03T21:42:16.700Z,57.90
2017-12-03T21:44:44.330Z,58.30
2017-12-03T21:52:19.462Z,59.30
2017-12-03T21:54:47.098Z,59.40
2017-12-03T21:57:15.242Z,59.80
2017-12-03T21:59:42.987Z,59.80
2017-12-03T22:02:10.660Z,60.30
2017-12-03T22:07:05.987Z,61.90
2017-12-03T22:09:33.625Z,62.00
2017-12-03T22:12:01.641Z,62.00
2017-12-03T22:14:29.286Z,61.50
2017-12-03T22:16:56.916Z,61.20
2017-12-03T22:19:24.800Z,62.20
2017-12-03T22:21:52.418Z,61.00
2017-12-03T22:27:00.022Z,60.40
2017-12-03T22:29:27.643Z,60.50
2017-12-03T22:31:55.287Z,68.30
2017-12-03T22:34:22.974Z,64.00
2017-12-03T22:36:51.021Z,62.40
2017-12-03T22:41:59.907Z,60.60
2017-12-03T22:44:27.536Z,61.30
2017-12-03T22:46:56.260Z,61.30
2017-12-03T22:49:24.612Z,61.50
2017-12-03T22:51:58.270Z,61.50
2017-12-03T22:54:24.764Z,61.60
2017-12-03T22:56:52.400Z,62.10
2017-12-03T22:59:21.947Z,62.70
2017-12-03T23:01:49.765Z,62.20
2017-12-03T23:04:17.405Z,62.60
2017-12-03T23:06:45.033Z,63.00
2017-12-03T23:11:44.434Z,62.70
2017-12-03T23:14:12.384Z,63.50
2017-12-03T23:16:40.012Z,62.80
2017-12-03T23:19:07.638Z,63.50
2017-12-03T23:21:35.338Z,63.30
2017-12-03T23:29:09.729Z,62.80
2017-12-03T23:31:37.347Z,63.30
2017-12-03T23:34:04.975Z,62.10
2017-12-03T23:39:13.391Z,62.50
2017-12-03T23:41:41.224Z,62.40
2017-12-03T23:44:08.853Z,62.20
2017-12-03T23:49:04.188Z,63.20
2017-12-03T23:51:31.818Z,63.80
2017-12-03T23:53:59.440Z,64.30
2017-12-03T23:56:27.401Z,65.00
2017-12-03T23:58:55.024Z,65.30
